Time;durP1;ratioP1;P1;durP2;ratioP2;P2;SDS_P1;SDS_P2;PMS_P1;PMS_P2;Temp;Humidity;BMP_temperature;BMP_pressure;BME280_temperature;BME280_humidity;BME280_pressure;Samples;Min_cycle;Max_cycle;Signal;HPM_P1;HPM_P2
2021/03/09 00:00:31;;;;;;;;;;;;;;;-5.48;100.00;101538.81;5113886;28;19931;-67
2021/03/09 00:02:57;;;;;;;;;;;;;;;-5.45;100.00;101540.59;5113676;28;19927;-67
2021/03/09 00:05:23;;;;;;;;;;;;;;;-5.40;100.00;101537.06;5113591;28;19924;-67
2021/03/09 00:07:48;;;;;;;;;;;;;;;-5.26;100.00;101536.16;5113382;28;19924;-67
2021/03/09 00:10:14;;;;;;;;;;;;;;;-5.17;100.00;101538.78;5113460;28;19923;-67
2021/03/09 00:12:40;;;;;;;;;;;;;;;-5.11;100.00;101537.88;5113773;28;20280;-67
2021/03/09 00:15:08;;;;;;;;;;;;;;;-5.07;100.00;101534.31;5113235;28;20289;-67
2021/03/09 00:17:33;;;;;;;;;;;;;;;-5.04;100.00;101539.59;5113372;28;19970;-67
2021/03/09 00:19:59;;;;;;;;;;;;;;;-5.03;100.00;101544.03;5112935;28;19928;-66
2021/03/09 00:22:25;;;;;;;;;;;;;;;-4.97;100.00;101538.72;5112297;28;20081;-67
2021/03/09 00:24:51;;;;;;;;;;;;;;;-4.87;100.00;101537.75;5113549;28;19927;-67
2021/03/09 00:27:17;;;;;;;;;;;;;;;-4.64;100.00;101533.25;5113186;28;19935;-67
2021/03/09 00:29:42;;;;;;;;;;;;;;;-4.47;100.00;101535.81;5113003;28;19969;-67
2021/03/09 00:32:10;;;;;;;;;;;;;;;-4.22;100.00;101531.25;5113268;28;19923;-67
2021/03/09 00:34:36;;;;;;;;;;;;;;;-4.09;100.00;101535.56;5113540;28;19931;-67
2021/03/09 00:37:02;;;;;;;;;;;;;;;-4.05;100.00;101528.44;5112786;28;20027;-67
2021/03/09 00:39:28;;;;;;;;;;;;;;;-3.94;100.00;101533.66;5113039;28;19924;-67
2021/03/09 00:41:54;;;;;;;;;;;;;;;-3.92;100.00;101529.22;5112937;28;20408;-66
2021/03/09 00:44:20;;;;;;;;;;;;;;;-3.89;100.00;101526.53;5113123;28;19928;-66
2021/03/09 00:46:46;;;;;;;;;;;;;;;-3.82;100.00;101527.38;5112333;28;19930;-66
2021/03/09 00:49:12;;;;;;;;;;;;;;;-3.76;100.00;101524.66;5112754;28;19923;-66
2021/03/09 00:51:38;;;;;;;;;;;;;;;-3.69;100.00;101529.00;5112806;28;20015;-66
2021/03/09 00:54:05;;;;;;;;;;;;;;;-3.64;100.00;101527.19;5112043;28;21487;-66
2021/03/09 00:56:31;;;;;;;;;;;;;;;-3.60;100.00;101520.09;5112508;28;20399;-66
2021/03/09 00:58:57;;;;;;;;;;;;;;;-3.65;100.00;101517.47;5112822;28;20346;-66
2021/03/09 01:01:23;;;;;;;;;;;;;;;-3.62;100.00;101505.94;5112883;28;20381;-66
2021/03/09 01:03:48;;;;;;;;;;;;;;;-3.58;100.00;101505.03;5112481;28;20022;-66
2021/03/09 01:06:15;;;;;;;;;;;;;;;-3.59;100.00;101495.31;5111912;28;20393;-66
2021/03/09 01:08:41;;;;;;;;;;;;;;;-3.57;100.00;101505.03;5112549;28;19924;-66
2021/03/09 01:11:06;;;;;;;;;;;;;;;-3.62;100.00;101498.88;5112613;28;19994;-66
2021/03/09 01:13:32;;;;;;;;;;;;;;;-3.59;100.00;101498.84;5112605;28;20389;-66
2021/03/09 01:15:58;;;;;;;;;;;;;;;-3.62;100.00;101500.63;5110858;28;19978;-66
2021/03/09 01:18:24;;;;;;;;;;;;;;;-3.54;100.00;101498.78;5112806;28;19923;-67
2021/03/09 01:20:50;;;;;;;;;;;;;;;-3.55;100.00;101492.59;5112239;28;19924;-66
2021/03/09 01:23:17;;;;;;;;;;;;;;;-3.57;100.00;101494.41;5112354;28;20393;-66
2021/03/09 01:25:43;;;;;;;;;;;;;;;-3.56;100.00;101488.19;5111777;28;20480;-66
2021/03/09 01:28:09;;;;;;;;;;;;;;;-3.52;100.00;101489.03;5112172;28;20015;-66
2021/03/09 01:30:35;;;;;;;;;;;;;;;-3.44;100.00;101489.84;5112329;28;19977;-66
2021/03/09 01:33:01;;;;;;;;;;;;;;;-3.45;100.00;101480.09;5112221;28;20010;-67
2021/03/09 01:35:27;;;;;;;;;;;;;;;-3.40;100.00;101474.75;5112131;28;19989;-66
2021/03/09 01:37:53;;;;;;;;;;;;;;;-3.40;100.00;101474.75;5111764;28;19924;-66
2021/03/09 01:40:20;;;;;;;;;;;;;;;-3.36;100.00;101473.81;5111873;28;19938;-66
2021/03/09 01:42:46;;;;;;;;;;;;;;;-3.38;100.00;101472.94;5111899;28;19924;-66
2021/03/09 01:45:12;;;;;;;;;;;;;;;-3.37;100.00;101469.41;5111884;28;19931;-66
2021/03/09 01:47:40;;;;;;;;;;;;;;;-3.40;100.00;101464.13;5111841;28;19928;-66
2021/03/09 01:50:06;;;;;;;;;;;;;;;-3.38;100.00;101463.22;5112114;28;19970;-66
2021/03/09 01:52:32;;;;;;;;;;;;;;;-3.44;100.00;101460.63;5111576;28;20011;-67
2021/03/09 01:54:58;;;;;;;;;;;;;;;-3.54;100.00;101461.63;5111616;28;20397;-67
2021/03/09 01:57:24;;;;;;;;;;;;;;;-3.60;100.00;101467.88;5111561;28;19966;-66
2021/03/09 01:59:50;;;;;;;;;;;;;;;-3.61;100.00;101462.59;5111274;28;19969;-67
2021/03/09 02:02:16;;;;;;;;;;;;;;;-3.74;100.00;101467.13;5111880;28;19963;-67
2021/03/09 02:04:42;;;;;;;;;;;;;;;-3.79;100.00;101458.38;5111574;28;20428;-66
2021/03/09 02:07:08;;;;;;;;;;;;;;;-3.82;100.00;101459.28;5111572;28;19931;-66
2021/03/09 02:09:35;;;;;;;;;;;;;;;-3.73;100.00;101458.28;5111686;28;20319;-66
2021/03/09 02:12:06;;;;;;;;;;;;;;;-3.68;100.00;101459.13;5111547;28;19955;-66
2021/03/09 02:14:36;;;;;;;;;;;;;;;-3.69;100.00;101460.00;5111986;28;20416;-66
2021/03/09 02:17:05;;;;;;;;;;;;;;;-3.70;100.00;101450.31;5111226;28;19931;-66
2021/03/09 02:19:42;;;;;;;;;;;;;;;-3.74;100.00;101448.56;5111542;28;20098;-66
2021/03/09 02:22:23;;;;;;;;;;;;;;;-3.74;100.00;101449.47;5112915;28;19971;-66
2021/03/09 02:25:04;;;;;;;;;;;;;;;-3.75;100.00;101447.69;5110836;28;19987;-66
2021/03/09 02:27:39;;;;;;;;;;;;;;;-3.76;100.00;101448.59;5069246;28;20019;-66
2021/03/09 02:30:11;;;;;;;;;;;;;;;-3.82;100.00;101440.72;5113973;28;19991;-66
2021/03/09 02:32:38;;;;;;;;;;;;;;;-3.81;100.00;101433.63;5111354;28;19923;-66
2021/03/09 02:35:05;;;;;;;;;;;;;;;-3.85;100.00;101442.50;5110904;28;20464;-66
2021/03/09 02:37:33;;;;;;;;;;;;;;;-3.92;100.00;101445.19;5111352;28;20015;-67
2021/03/09 02:39:59;;;;;;;;;;;;;;;-4.00;100.00;101436.44;5111593;28;19931;-66
2021/03/09 02:42:26;;;;;;;;;;;;;;;-4.03;100.00;101436.47;5109599;28;20345;-66
2021/03/09 02:44:53;;;;;;;;;;;;;;;-4.01;100.00;101436.47;5111145;28;19977;-67
2021/03/09 02:47:21;;;;;;;;;;;;;;;-4.07;100.00;101440.94;5111467;28;20061;-66
2021/03/09 02:49:47;;;;;;;;;;;;;;;-4.09;100.00;101431.22;5111247;28;19930;-66
2021/03/09 02:52:15;;;;;;;;;;;;;;;-4.12;100.00;101432.13;5111097;28;20349;-66
2021/03/09 02:54:42;;;;;;;;;;;;;;;-4.08;100.00;101433.84;5111107;28;20132;-66
2021/03/09 02:57:09;;;;;;;;;;;;;;;-4.16;100.00;101429.53;5111103;28;20453;-66
2021/03/09 02:59:35;;;;;;;;;;;;;;;-4.22;100.00;101433.13;5111238;28;19924;-66
2021/03/09 03:02:01;;;;;;;;;;;;;;;-4.31;100.00;101426.13;5109689;28;20014;-66
2021/03/09 03:04:28;;;;;;;;;;;;;;;-4.36;100.00;101425.28;5111207;28;19935;-66
2021/03/09 03:06:55;;;;;;;;;;;;;;;-4.42;100.00;101428.00;5110998;28;19969;-66
2021/03/09 03:09:21;;;;;;;;;;;;;;;-4.45;100.00;101425.34;5111755;28;19955;-67
2021/03/09 03:11:49;;;;;;;;;;;;;;;-4.55;100.00;101417.47;5114485;28;20385;-66
2021/03/09 03:14:15;;;;;;;;;;;;;;;-4.58;100.00;101425.44;5114653;28;19953;-66
2021/03/09 03:16:42;;;;;;;;;;;;;;;-4.54;100.00;101423.66;5113012;28;19923;-66
2021/03/09 03:19:08;;;;;;;;;;;;;;;-4.56;100.00;101426.31;5113896;28;19959;-66
2021/03/09 03:21:35;;;;;;;;;;;;;;;-4.57;100.00;101423.66;5114495;28;20436;-66
2021/03/09 03:24:03;;;;;;;;;;;;;;;-4.61;100.00;101428.13;5114537;28;20397;-66
2021/03/09 03:26:29;;;;;;;;;;;;;;;-4.60;100.00;101424.56;5114249;28;19959;-66
2021/03/09 03:28:55;;;;;;;;;;;;;;;-4.60;100.00;101429.88;5114494;28;19985;-66
2021/03/09 03:31:21;;;;;;;;;;;;;;;-4.58;100.00;101428.09;5114288;28;20367;-66
2021/03/09 03:33:48;;;;;;;;;;;;;;;-4.59;100.00;101417.50;5114423;28;19959;-66
2021/03/09 03:36:14;;;;;;;;;;;;;;;-4.62;100.00;101426.34;5114280;28;19924;-66
2021/03/09 03:38:41;;;;;;;;;;;;;;;-4.69;100.00;101424.63;5114702;28;20427;-66
2021/03/09 03:41:07;;;;;;;;;;;;;;;-4.72;100.00;101422.00;5114244;28;20377;-66
2021/03/09 03:43:33;;;;;;;;;;;;;;;-4.75;100.00;101414.09;5114226;28;19924;-66
2021/03/09 03:45:59;;;;;;;;;;;;;;;-4.81;100.00;101411.47;5113755;28;20273;-66
2021/03/09 03:48:25;;;;;;;;;;;;;;;-4.88;100.00;101410.63;5113944;28;20282;-66
2021/03/09 03:50:52;;;;;;;;;;;;;;;-4.97;100.00;101406.28;5114130;28;19967;-66
2021/03/09 03:53:21;;;;;;;;;;;;;;;-5.07;100.00;101412.53;5114084;28;20367;-66
2021/03/09 03:56:00;;;;;;;;;;;;;;;-5.16;100.00;101413.44;5113744;28;19963;-66
2021/03/09 03:58:29;;;;;;;;;;;;;;;-5.23;100.00;101409.94;5114180;28;19931;-66
2021/03/09 04:00:57;;;;;;;;;;;;;;;-5.28;100.00;101408.22;5113673;28;19966;-66
2021/03/09 04:03:23;;;;;;;;;;;;;;;-5.32;100.00;101407.34;5113543;28;20012;-67
2021/03/09 04:05:50;;;;;;;;;;;;;;;-5.36;100.00;101404.72;5113478;28;19973;-67
2021/03/09 04:08:16;;;;;;;;;;;;;;;-5.37;100.00;101403.84;5114140;28;19958;-66
2021/03/09 04:10:43;;;;;;;;;;;;;;;-5.37;100.00;101403.84;5113430;28;19927;-66
2021/03/09 04:13:09;;;;;;;;;;;;;;;-5.34;100.00;101408.22;5113843;28;19931;-66
2021/03/09 04:15:36;;;;;;;;;;;;;;;-5.34;100.00;101401.19;5112221;28;19989;-66
2021/03/09 04:18:03;;;;;;;;;;;;;;;-5.38;100.00;101405.59;5113543;28;20308;-66
2021/03/09 04:20:29;;;;;;;;;;;;;;;-5.39;100.00;101405.63;5113630;28;19924;-66
2021/03/09 04:22:56;;;;;;;;;;;;;;;-5.39;100.00;101400.31;5112615;28;20018;-67
2021/03/09 04:25:22;;;;;;;;;;;;;;;-5.39;100.00;101403.84;5113404;28;19955;-66
2021/03/09 04:27:48;;;;;;;;;;;;;;;-5.38;100.00;101394.16;5113152;28;19963;-66
2021/03/09 04:30:16;;;;;;;;;;;;;;;-5.36;100.00;101405.59;5113675;28;19978;-66
2021/03/09 04:32:42;;;;;;;;;;;;;;;-5.38;100.00;101392.38;5113353;28;19974;-66
2021/03/09 04:35:08;;;;;;;;;;;;;;;-5.39;100.00;101397.66;5113345;28;19927;-66
2021/03/09 04:37:34;;;;;;;;;;;;;;;-5.41;100.00;101394.13;5113058;28;19971;-66
2021/03/09 04:40:00;;;;;;;;;;;;;;;-5.43;100.00;101388.00;5112845;28;20285;-66
2021/03/09 04:42:26;;;;;;;;;;;;;;;-5.44;100.00;101384.47;5113040;28;19979;-66
2021/03/09 04:44:52;;;;;;;;;;;;;;;-5.46;100.00;101388.88;5111727;28;19924;-66
2021/03/09 04:47:19;;;;;;;;;;;;;;;-5.44;100.00;101388.88;5112934;28;19928;-66
2021/03/09 04:49:45;;;;;;;;;;;;;;;-5.43;100.00;101388.00;5113322;28;19963;-67
2021/03/09 04:52:11;;;;;;;;;;;;;;;-5.46;100.00;101386.22;5112755;28;19931;-67
2021/03/09 04:54:37;;;;;;;;;;;;;;;-5.47;100.00;101387.13;5112777;28;19974;-67
2021/03/09 04:57:03;;;;;;;;;;;;;;;-5.49;100.00;101385.34;5112546;28;19930;-65
2021/03/09 04:59:29;;;;;;;;;;;;;;;-5.51;100.00;101388.00;5112653;28;20274;-65
2021/03/09 05:01:55;;;;;;;;;;;;;;;-5.50;100.00;101381.84;5112322;28;20024;-65
2021/03/09 05:04:22;;;;;;;;;;;;;;;-5.49;100.00;101383.63;5112531;28;19924;-65
2021/03/09 05:06:47;;;;;;;;;;;;;;;-5.44;100.00;101378.28;5112077;28;20015;-66
2021/03/09 05:09:13;;;;;;;;;;;;;;;-5.35;100.00;101385.31;5112619;28;19982;-65
2021/03/09 05:11:39;;;;;;;;;;;;;;;-5.28;100.00;101382.63;5112501;28;19996;-65
2021/03/09 05:14:05;;;;;;;;;;;;;;;-5.30;100.00;101386.19;5112457;28;19935;-65
2021/03/09 05:16:31;;;;;;;;;;;;;;;-5.22;100.00;101377.28;5111748;28;20026;-65
2021/03/09 05:18:57;;;;;;;;;;;;;;;-5.24;100.00;101376.44;5112437;28;20011;-65
2021/03/09 05:21:23;;;;;;;;;;;;;;;-5.19;100.00;101379.03;5112209;28;19924;-65
2021/03/09 05:23:49;;;;;;;;;;;;;;;-5.26;100.00;101379.97;5111737;28;19947;-65
2021/03/09 05:26:15;;;;;;;;;;;;;;;-5.29;100.00;101379.97;5110635;28;20369;-65
2021/03/09 05:28:40;;;;;;;;;;;;;;;-5.33;100.00;101376.47;5112093;28;20411;-64
2021/03/09 05:31:06;;;;;;;;;;;;;;;-5.31;100.00;101379.13;5105701;28;19924;-66
2021/03/09 05:33:32;;;;;;;;;;;;;;;-5.14;100.00;101377.25;5110362;28;19924;-66
2021/03/09 05:35:58;;;;;;;;;;;;;;;-5.08;100.00;101385.16;5094137;28;19924;-67
2021/03/09 05:38:24;;;;;;;;;;;;;;;-5.05;100.00;101378.94;5091591;28;20436;-67
2021/03/09 05:40:52;;;;;;;;;;;;;;;-5.03;100.00;101377.19;5104340;28;20386;-66
2021/03/09 05:43:17;;;;;;;;;;;;;;;-5.08;100.00;101378.97;5098337;28;20484;-66
2021/03/09 05:45:43;;;;;;;;;;;;;;;-5.10;100.00;101376.34;5110561;28;19924;-66
2021/03/09 05:48:10;;;;;;;;;;;;;;;-5.08;100.00;101381.63;5111512;28;20018;-67
2021/03/09 05:50:35;;;;;;;;;;;;;;;-4.99;100.00;101384.22;5099380;28;19952;-66
2021/03/09 05:53:01;;;;;;;;;;;;;;;-4.84;100.00;101379.72;5091187;28;20293;-64
2021/03/09 05:55:28;;;;;;;;;;;;;;;-4.74;100.00;101379.63;5093350;28;20073;-64
2021/03/09 05:57:56;;;;;;;;;;;;;;;-4.67;100.00;101371.66;5092412;28;19966;-64
2021/03/09 06:00:24;;;;;;;;;;;;;;;-4.63;100.00;101382.19;5091828;28;19967;-64
2021/03/09 06:02:52;;;;;;;;;;;;;;;-4.48;100.00;101377.66;5111474;28;19963;-64
2021/03/09 06:05:18;;;;;;;;;;;;;;;-4.39;100.00;101375.81;5111585;28;19928;-64
2021/03/09 06:07:44;;;;;;;;;;;;;;;-4.22;100.00;101375.66;5091212;28;20283;-65
2021/03/09 06:10:19;;;;;;;;;;;;;;;-4.10;100.00;101373.75;5090501;28;19928;-66
2021/03/09 06:12:46;;;;;;;;;;;;;;;-3.93;100.00;101368.28;5094107;28;19924;-66
2021/03/09 06:15:12;;;;;;;;;;;;;;;-3.77;100.00;101380.50;5111517;28;19924;-66
2021/03/09 06:17:39;;;;;;;;;;;;;;;-3.64;100.00;101381.22;5109109;28;19930;-65
2021/03/09 06:20:06;;;;;;;;;;;;;;;-3.55;100.00;101385.56;5103389;28;20231;-65
2021/03/09 06:22:38;;;;;;;;;;;;;;;-3.43;100.00;101384.53;5098865;28;19924;-65
2021/03/09 06:25:05;;;;;;;;;;;;;;;-3.33;100.00;101383.50;5091493;28;20030;-65
2021/03/09 06:27:31;;;;;;;;;;;;;;;-3.28;100.00;101384.31;5110446;28;19945;-65
2021/03/09 06:29:59;;;;;;;;;;;;;;;-3.17;100.00;101381.50;5110977;28;20050;-65
2021/03/09 06:32:26;;;;;;;;;;;;;;;-3.07;100.00;101382.28;5111167;28;19959;-64
2021/03/09 06:34:53;;;;;;;;;;;;;;;-2.99;100.00;101382.16;5091763;28;19924;-64
2021/03/09 06:37:19;;;;;;;;;;;;;;;-2.92;100.00;101381.19;5092042;28;19930;-64
2021/03/09 06:39:47;;;;;;;;;;;;;;;-2.80;100.00;101396.06;5105831;28;19943;-65
2021/03/09 06:42:14;;;;;;;;;;;;;;;-2.72;100.00;101388.84;5098556;28;20228;-65
2021/03/09 06:44:40;;;;;;;;;;;;;;;-2.62;100.00;101382.50;5110273;28;19930;-65
2021/03/09 06:47:06;;;;;;;;;;;;;;;-2.58;100.00;101381.53;5108162;28;19927;-65
2021/03/09 06:49:47;;;;;;;;;;;;;;;-2.58;100.00;101381.53;5111609;28;20211;-64
2021/03/09 06:52:13;;;;;;;;;;;;;;;-2.48;100.00;101382.25;5100262;28;19932;-66
2021/03/09 06:54:43;;;;;;;;;;;;;;;-2.34;100.00;101384.66;5114029;28;19924;-64
2021/03/09 06:57:09;;;;;;;;;;;;;;;-2.19;100.00;101387.06;5098639;28;19931;-64
2021/03/09 06:59:35;;;;;;;;;;;;;;;-2.09;100.00;101384.25;5107255;28;19946;-64
2021/03/09 07:02:04;;;;;;;;;;;;;;;-1.95;100.00;101384.88;5113347;28;20331;-64
2021/03/09 07:04:31;;;;;;;;;;;;;;;-1.86;100.00;101390.03;5111099;28;20416;-64
2021/03/09 07:06:57;;;;;;;;;;;;;;;-1.73;100.00;101389.78;5113496;28;19924;-65
2021/03/09 07:09:23;;;;;;;;;;;;;;;-1.48;100.00;101389.28;5113678;28;19984;-64
2021/03/09 07:11:49;;;;;;;;;;;;;;;-1.30;100.00;101391.56;5114481;28;19996;-64
2021/03/09 07:14:15;;;;;;;;;;;;;;;-0.97;100.00;101389.06;5109775;28;19924;-65
2021/03/09 07:16:46;;;;;;;;;;;;;;;-0.53;100.00;101386.28;5112161;28;19963;-64
2021/03/09 07:19:13;;;;;;;;;;;;;;;-0.21;97.29;101385.47;5112132;28;19930;-65
2021/03/09 07:21:42;;;;;;;;;;;;;;;0.16;94.46;101388.94;5109209;28;20026;-65
2021/03/09 07:24:08;;;;;;;;;;;;;;;0.53;92.42;101387.91;5128072;27;19924;-65
2021/03/09 07:26:38;;;;;;;;;;;;;;;1.01;88.34;101386.50;5093490;28;19924;-65
2021/03/09 07:29:04;;;;;;;;;;;;;;;1.36;83.93;101394.34;5103129;28;19924;-65
2021/03/09 07:31:32;;;;;;;;;;;;;;;1.44;78.89;101382.47;5114496;28;19956;-65
2021/03/09 07:33:58;;;;;;;;;;;;;;;1.78;78.28;101375.13;5113315;28;20032;-65
2021/03/09 07:36:24;;;;;;;;;;;;;;;1.74;73.90;101381.47;5112102;28;19935;-65
2021/03/09 07:38:51;;;;;;;;;;;;;;;1.70;74.14;101378.06;5109390;28;19931;-65
2021/03/09 07:41:18;;;;;;;;;;;;;;;1.60;74.16;101372.13;5094454;28;19925;-66
2021/03/09 07:43:43;;;;;;;;;;;;;;;1.44;74.14;101374.47;5106425;28;19946;-65
2021/03/09 07:46:09;;;;;;;;;;;;;;;1.23;76.14;101381.38;5097709;28;20393;-65
2021/03/09 07:48:36;;;;;;;;;;;;;;;1.66;77.18;101379.94;5108627;28;19927;-66
2021/03/09 07:51:03;;;;;;;;;;;;;;;1.81;74.72;101380.38;5107565;28;19932;-66
2021/03/09 07:53:28;;;;;;;;;;;;;;;2.05;72.12;101378.63;5102580;28;19924;-67
2021/03/09 07:56:12;;;;;;;;;;;;;;;2.31;71.96;101379.50;5109798;28;19931;-67
2021/03/09 07:58:39;;;;;;;;;;;;;;;2.90;68.78;101372.84;5112216;28;20019;-66
2021/03/09 08:01:05;;;;;;;;;;;;;;;2.98;65.56;101377.88;5113583;28;19955;-65
2021/03/09 08:03:33;;;;;;;;;;;;;;;3.50;65.09;101370.44;5113884;28;19930;-65
2021/03/09 08:05:59;;;;;;;;;;;;;;;3.78;63.07;101366.59;5093020;28;19932;-65
2021/03/09 08:08:36;;;;;;;;;;;;;;;3.76;60.60;101371.16;5093242;28;19927;-65
2021/03/09 08:11:01;;;;;;;;;;;;;;;3.74;60.73;101359.63;5092782;28;19928;-65
2021/03/09 08:13:28;;;;;;;;;;;;;;;3.34;60.51;101362.13;5093332;28;19928;-66
2021/03/09 08:16:13;;;;;;;;;;;;;;;3.18;61.73;101353.84;5110909;28;20393;-65
2021/03/09 08:18:41;;;;;;;;;;;;;;;3.27;62.99;101354.41;5113557;28;19924;-65
2021/03/09 08:21:06;;;;;;;;;;;;;;;4.00;64.26;101352.22;5095180;28;19928;-65
2021/03/09 08:23:51;;;;;;;;;;;;;;;4.05;61.03;101352.91;5104134;28;19933;-66
2021/03/09 08:26:32;;;;;;;;;;;;;;;4.29;59.83;101350.94;5109385;28;19923;-65
2021/03/09 08:28:58;;;;;;;;;;;;;;;4.39;59.80;101355.91;5107224;28;19975;-65
2021/03/09 08:31:26;;;;;;;;;;;;;;;4.72;57.70;101350.78;5091146;28;19971;-66
2021/03/09 08:33:53;;;;;;;;;;;;;;;4.47;57.50;101349.22;5091583;28;20015;-65
2021/03/09 08:36:34;;;;;;;;;;;;;;;4.43;57.07;101346.75;5106792;28;19930;-65
2021/03/09 08:39:13;;;;;;;;;;;;;;;4.85;55.27;101340.31;5112433;28;19934;-66
2021/03/09 08:41:53;;;;;;;;;;;;;;;5.11;54.91;101339.06;5095344;28;20404;-67
2021/03/09 08:44:20;;;;;;;;;;;;;;;5.05;54.72;101338.50;5098162;28;19931;-66
2021/03/09 08:46:56;;;;;;;;;;;;;;;5.35;55.36;101331.59;5102077;28;20381;-65
2021/03/09 08:49:40;;;;;;;;;;;;;;;5.44;52.94;101332.09;5094673;28;19928;-66
2021/03/09 08:52:08;;;;;;;;;;;;;;;5.47;52.45;101329.25;5112434;28;19927;-66
2021/03/09 08:54:38;;;;;;;;;;;;;;;5.67;51.68;101325.56;5098240;28;19932;-66
2021/03/09 08:57:05;;;;;;;;;;;;;;;5.73;51.75;101319.81;5109654;28;20393;-66
2021/03/09 08:59:32;;;;;;;;;;;;;;;5.79;50.84;101324.06;5112475;28;19982;-66
2021/03/09 09:02:05;;;;;;;;;;;;;;;5.90;49.79;101318.97;5104627;28;20301;-66
2021/03/09 09:04:31;;;;;;;;;;;;;;;5.66;50.19;101313.88;5112351;28;19928;-67
2021/03/09 09:06:57;;;;;;;;;;;;;;;6.02;51.08;101317.47;5110807;28;20393;-66
2021/03/09 09:09:31;;;;;;;;;;;;;;;6.49;49.29;101314.06;5111885;28;19959;-66
2021/03/09 09:11:57;;;;;;;;;;;;;;;7.06;48.14;101309.16;5098493;28;19930;-66
2021/03/09 09:14:23;;;;;;;;;;;;;;;7.43;45.89;101305.19;5111064;28;19924;-66
2021/03/09 09:16:52;;;;;;;;;;;;;;;7.95;44.66;101316.53;5110086;28;19923;-66
2021/03/09 09:19:18;;;;;;;;;;;;;;;7.96;44.01;101310.16;5111703;28;19927;-66
2021/03/09 09:21:45;;;;;;;;;;;;;;;8.60;42.87;101301.75;5111369;28;19947;-66
2021/03/09 09:24:21;;;;;;;;;;;;;;;9.28;40.65;101302.75;5111439;28;20289;-66
2021/03/09 09:26:58;;;;;;;;;;;;;;;8.61;41.73;101304.34;5104789;28;20371;-66
2021/03/09 09:29:24;;;;;;;;;;;;;;;9.00;41.78;101312.69;5110246;28;19991;-66
2021/03/09 09:31:54;;;;;;;;;;;;;;;8.82;40.54;101301.25;5110497;28;20445;-66
2021/03/09 09:34:20;;;;;;;;;;;;;;;9.09;41.43;101295.84;5111351;28;20017;-66
2021/03/09 09:36:45;;;;;;;;;;;;;;;8.62;40.80;101299.78;5110450;28;19932;-66
2021/03/09 09:39:11;;;;;;;;;;;;;;;8.17;42.04;101298.00;5111698;28;19985;-66
2021/03/09 09:41:37;;;;;;;;;;;;;;;7.90;42.56;101302.41;5097121;28;19931;-66
2021/03/09 09:44:04;;;;;;;;;;;;;;;8.31;43.76;101291.75;5096907;28;19932;-66
2021/03/09 09:46:30;;;;;;;;;;;;;;;8.79;42.17;101296.88;5108880;28;20113;-66
2021/03/09 09:48:57;;;;;;;;;;;;;;;8.74;40.39;101292.72;5111447;28;20019;-66
2021/03/09 09:51:23;;;;;;;;;;;;;;;8.20;39.30;101291.56;5111229;28;19978;-66
2021/03/09 09:53:50;;;;;;;;;;;;;;;7.83;40.16;101297.41;5111501;28;19963;-66
2021/03/09 09:56:22;;;;;;;;;;;;;;;8.09;39.94;101292.22;5110283;28;19982;-65
2021/03/09 09:58:49;;;;;;;;;;;;;;;8.30;39.90;101297.28;5094057;28;20015;-66
2021/03/09 10:01:17;;;;;;;;;;;;;;;9.21;38.57;101286.03;5102369;28;19924;-66
2021/03/09 10:03:52;;;;;;;;;;;;;;;9.47;37.52;101286.97;5108801;28;20019;-65
2021/03/09 10:06:18;;;;;;;;;;;;;;;9.85;36.41;101291.63;5107034;28;20335;-66
2021/03/09 10:08:44;;;;;;;;;;;;;;;9.96;36.51;101290.88;5101088;28;19923;-66
2021/03/09 10:11:11;;;;;;;;;;;;;;;9.10;35.84;101284.03;5107871;28;20019;-66
2021/03/09 10:13:37;;;;;;;;;;;;;;;9.19;36.10;101285.25;5108924;28;19931;-66
2021/03/09 10:16:03;;;;;;;;;;;;;;;8.85;37.01;101291.06;5110096;28;19981;-66
2021/03/09 10:18:30;;;;;;;;;;;;;;;8.52;37.17;101285.97;5109485;28;20372;-66
2021/03/09 10:21:00;;;;;;;;;;;;;;;9.10;36.33;101288.56;5111758;28;20014;-65
2021/03/09 10:23:26;;;;;;;;;;;;;;;7.74;36.74;101292.56;5114531;28;20375;-66
2021/03/09 10:25:56;;;;;;;;;;;;;;;7.98;37.88;101286.63;5113123;28;19924;-66
2021/03/09 10:28:24;;;;;;;;;;;;;;;8.65;35.83;101283.38;5115016;28;20041;-65
2021/03/09 10:30:50;;;;;;;;;;;;;;;8.65;36.02;101276.09;5112379;28;19970;-65
2021/03/09 10:33:15;;;;;;;;;;;;;;;9.44;36.13;101275.50;5098196;28;19923;-66
2021/03/09 10:36:00;;;;;;;;;;;;;;;9.39;35.95;101270.38;5113905;28;19924;-66
2021/03/09 10:38:27;;;;;;;;;;;;;;;9.45;35.13;101275.38;5114811;28;19931;-66
2021/03/09 10:40:53;;;;;;;;;;;;;;;9.52;34.67;101267.72;5109173;28;20374;-66
2021/03/09 10:43:33;;;;;;;;;;;;;;;9.24;33.95;101271.44;5103350;28;19935;-66
2021/03/09 10:45:59;;;;;;;;;;;;;;;9.60;33.11;101262.63;5112831;28;19924;-66
2021/03/09 10:48:25;;;;;;;;;;;;;;;9.54;33.90;101265.78;5113868;28;19924;-66
2021/03/09 10:50:51;;;;;;;;;;;;;;;9.38;33.89;101269.50;5109752;28;19935;-66
2021/03/09 10:53:17;;;;;;;;;;;;;;;8.90;33.97;101268.22;5111233;28;19932;-65
2021/03/09 10:55:43;;;;;;;;;;;;;;;9.19;34.19;101272.59;5114221;28;19928;-66
2021/03/09 10:58:09;;;;;;;;;;;;;;;9.66;33.61;101264.94;5113658;28;20023;-66
2021/03/09 11:00:35;;;;;;;;;;;;;;;9.54;32.94;101260.34;5107505;28;19928;-71
2021/03/09 11:03:01;;;;;;;;;;;;;;;10.42;32.25;101251.50;5113049;28;20296;-71
2021/03/09 11:05:27;;;;;;;;;;;;;;;10.28;31.17;101259.75;5105523;28;19925;-70
2021/03/09 11:07:52;;;;;;;;;;;;;;;10.43;31.63;101255.94;5110569;28;19924;-70
2021/03/09 11:10:19;;;;;;;;;;;;;;;9.51;31.07;101250.59;5112023;28;19987;-71
2021/03/09 11:12:46;;;;;;;;;;;;;;;9.31;29.21;101248.34;5098945;28;19928;-70
2021/03/09 11:15:12;;;;;;;;;;;;;;;9.26;28.95;101250.50;5093826;28;19924;-70
2021/03/09 11:17:38;;;;;;;;;;;;;;;9.41;29.92;101254.00;5108787;28;20004;-71
2021/03/09 11:20:05;;;;;;;;;;;;;;;9.67;30.31;101254.94;5114583;28;20687;-70
2021/03/09 11:22:30;;;;;;;;;;;;;;;10.46;29.25;101250.31;5112967;28;19930;-71
2021/03/09 11:24:56;;;;;;;;;;;;;;;10.47;30.42;101243.03;5095582;28;19924;-71
2021/03/09 11:27:22;;;;;;;;;;;;;;;11.01;30.01;101241.78;5112062;28;19923;-70
2021/03/09 11:29:49;;;;;;;;;;;;;;;9.87;29.57;101249.03;5114165;28;19932;-71
2021/03/09 11:32:14;;;;;;;;;;;;;;;10.32;29.55;101240.41;5101553;28;19974;-71
2021/03/09 11:34:40;;;;;;;;;;;;;;;9.14;29.72;101242.25;5093659;28;20293;-71
2021/03/09 11:56:40;;;;;;;;;;;;;;;10.81;28.36;101206.13;5087689;27;20381;-70
2021/03/09 11:59:06;;;;;;;;;;;;;;;10.66;27.23;101199.09;5078068;28;19976;-70
2021/03/09 12:01:31;;;;;;;;;;;;;;;10.84;28.41;101202.31;5070508;28;20432;-70
2021/03/09 12:03:57;;;;;;;;;;;;;;;11.00;26.21;101202.88;5083776;28;19925;-70
2021/03/09 12:06:23;;;;;;;;;;;;;;;10.82;26.34;101199.72;5080072;28;19960;-70
2021/03/09 12:08:49;;;;;;;;;;;;;;;10.80;26.57;101200.81;5067562;28;19983;-71
2021/03/09 12:11:15;;;;;;;;;;;;;;;10.46;26.89;101195.16;5068210;28;19970;-70
2021/03/09 12:13:42;;;;;;;;;;;;;;;10.86;27.18;101194.91;5073481;28;20159;-71
2021/03/09 12:16:07;;;;;;;;;;;;;;;9.86;27.09;101190.34;5087857;28;19924;-70
2021/03/09 12:18:33;;;;;;;;;;;;;;;10.69;27.01;101188.03;5083911;28;20247;-70
2021/03/09 12:21:00;;;;;;;;;;;;;;;11.29;26.61;101193.50;5066529;28;19925;-70
2021/03/09 12:23:26;;;;;;;;;;;;;;;11.11;26.91;101183.06;5069876;28;20400;-70
2021/03/09 12:25:51;;;;;;;;;;;;;;;10.86;27.01;101184.03;5087400;28;19939;-70
2021/03/09 12:28:17;;;;;;;;;;;;;;;10.68;27.02;101176.31;5085993;28;19963;-70
2021/03/09 12:30:44;;;;;;;;;;;;;;;10.54;27.41;101180.06;5067669;28;19925;-71
2021/03/09 12:33:10;;;;;;;;;;;;;;;11.15;26.73;101173.69;5067464;28;20456;-70
2021/03/09 12:35:36;;;;;;;;;;;;;;;11.07;26.41;101172.56;5087479;28;19928;-70
2021/03/09 12:38:02;;;;;;;;;;;;;;;11.60;27.21;101172.06;5068455;28;20025;-70
2021/03/09 12:40:28;;;;;;;;;;;;;;;11.78;25.85;101175.22;5067536;28;19929;-70
2021/03/09 12:42:54;;;;;;;;;;;;;;;11.39;25.48;101160.03;5084043;28;19931;-70
2021/03/09 12:45:19;;;;;;;;;;;;;;;12.38;26.29;101152.22;5085459;28;19932;-70
2021/03/09 12:47:46;;;;;;;;;;;;;;;12.52;24.33;101148.38;5072498;28;19931;-71
2021/03/09 12:50:12;;;;;;;;;;;;;;;11.09;25.88;101160.59;5081388;28;19974;-70
2021/03/09 12:52:39;;;;;;;;;;;;;;;11.48;26.32;101153.03;5069301;28;19967;-70